createdAt,value
2023-11-21T00:00:54.867Z,70.04
2023-11-21T00:03:43.821Z,69.93
2023-11-21T00:06:15.975Z,69.13
2023-11-21T00:08:47.670Z,69.24
2023-11-21T00:11:19.270Z,70.12
2023-11-21T00:13:51.311Z,70.17
2023-11-21T00:16:23.644Z,69.66
2023-11-21T00:18:55.491Z,69.22
2023-11-21T00:21:27.164Z,68.50
2023-11-21T00:23:58.753Z,69.41
2023-11-21T00:26:32.496Z,70.36
2023-11-21T00:29:04.249Z,70.33
2023-11-21T00:31:37.070Z,71.19
2023-11-21T00:34:08.901Z,70.90
2023-11-21T00:36:40.654Z,70.72
2023-11-21T00:39:13.200Z,70.59
2023-11-21T00:41:45.931Z,70.94
2023-11-21T00:44:18.137Z,71.38
2023-11-21T00:46:50.009Z,71.74
2023-11-21T00:49:22.064Z,72.03
2023-11-21T00:51:54.318Z,71.02
2023-11-21T00:54:26.538Z,71.11
2023-11-21T00:56:58.153Z,71.03
2023-11-21T00:59:29.782Z,71.44
2023-11-21T01:02:03.336Z,70.81
2023-11-21T01:04:35.122Z,70.85
2023-11-21T01:07:07.862Z,70.88
2023-11-21T01:09:39.727Z,70.99
2023-11-21T01:12:12.592Z,70.97
2023-11-21T01:14:44.223Z,71.26
2023-11-21T01:17:16.435Z,70.81
2023-11-21T01:19:48.340Z,71.45
2023-11-21T01:22:23.567Z,71.29
2023-11-21T01:24:53.818Z,70.92
2023-11-21T01:27:25.594Z,71.15
2023-11-21T01:29:57.499Z,70.89
2023-11-21T01:32:29.973Z,71.58
2023-11-21T01:35:01.738Z,72.06
2023-11-21T01:37:33.887Z,72.48
2023-11-21T01:40:15.144Z,72.45
2023-11-21T01:42:48.785Z,72.46
2023-11-21T01:45:21.210Z,71.94
2023-11-21T01:47:56.345Z,71.31
2023-11-21T01:50:30.031Z,71.18
2023-11-21T01:53:02.593Z,71.79
2023-11-21T01:55:35.153Z,71.95
2023-11-21T01:58:08.752Z,71.32
2023-11-21T02:00:40.855Z,71.87
2023-11-21T02:03:13.506Z,71.13
2023-11-21T02:05:45.304Z,71.54
2023-11-21T02:08:16.971Z,71.81
2023-11-21T02:10:49.412Z,71.02
2023-11-21T02:13:21.320Z,70.73
2023-11-21T02:15:55.520Z,70.40
2023-11-21T02:18:30.160Z,70.92
2023-11-21T02:21:03.956Z,70.30
2023-11-21T02:23:35.847Z,70.45
2023-11-21T02:26:09.809Z,70.70
2023-11-21T02:28:42.232Z,69.95
2023-11-21T02:31:14.734Z,70.08
2023-11-21T02:33:46.646Z,70.50
2023-11-21T02:36:18.206Z,69.79
2023-11-21T02:38:49.842Z,69.42
2023-11-21T02:41:21.459Z,70.28
2023-11-21T02:43:53.191Z,70.48
2023-11-21T02:46:24.881Z,70.44
2023-11-21T02:48:57.547Z,71.05
2023-11-21T02:51:29.480Z,71.15
2023-11-21T02:54:03.792Z,71.28
2023-11-21T02:56:35.782Z,70.64
2023-11-21T02:59:07.790Z,71.08
2023-11-21T03:01:39.637Z,70.69
2023-11-21T03:04:11.518Z,70.27
2023-11-21T03:06:43.151Z,70.54
2023-11-21T03:09:15.098Z,70.72
2023-11-21T03:11:46.726Z,70.50
2023-11-21T03:14:18.614Z,70.40
2023-11-21T03:16:51.983Z,71.08
2023-11-21T03:19:23.686Z,70.46
2023-11-21T03:21:55.418Z,70.20
2023-11-21T03:24:27.732Z,70.72
2023-11-21T03:26:59.361Z,69.85
2023-11-21T03:29:31.092Z,69.40
2023-11-21T03:32:03.139Z,70.22
2023-11-21T03:34:35.060Z,70.02
2023-11-21T03:37:07.042Z,69.80
2023-11-21T03:39:38.831Z,69.69
2023-11-21T03:42:10.441Z,69.30
2023-11-21T03:44:42.043Z,68.53
2023-11-21T03:47:13.607Z,69.04
2023-11-21T03:49:45.515Z,69.45
2023-11-21T03:52:17.385Z,69.57
2023-11-21T03:54:49.204Z,69.46
2023-11-21T03:57:21.001Z,69.84
2023-11-21T03:59:55.915Z,70.20
2023-11-21T04:02:29.241Z,69.30
2023-11-21T04:05:01.120Z,69.12
2023-11-21T04:07:32.844Z,69.69
2023-11-21T04:10:05.212Z,69.05
2023-11-21T04:12:37.123Z,68.93
2023-11-21T04:15:10.910Z,69.72
2023-11-21T04:17:42.690Z,69.26
2023-11-21T04:20:15.882Z,69.06
2023-11-21T04:22:48.509Z,70.04
2023-11-21T04:25:20.846Z,70.01
2023-11-21T04:27:52.945Z,70.15
2023-11-21T04:30:25.171Z,70.57
2023-11-21T04:32:57.090Z,70.49
2023-11-21T04:35:28.805Z,71.08
2023-11-21T04:38:00.351Z,70.75
2023-11-21T04:40:31.937Z,70.33
2023-11-21T04:43:05.121Z,70.97
2023-11-21T04:45:36.664Z,71.60
2023-11-21T04:48:09.323Z,72.06
2023-11-21T04:50:41.056Z,72.44
2023-11-21T04:53:15.305Z,71.92
2023-11-21T04:55:47.241Z,71.74
2023-11-21T04:58:20.538Z,71.99
2023-11-21T05:00:52.285Z,71.81
2023-11-21T05:03:25.432Z,71.86
2023-11-21T05:05:57.498Z,72.36
2023-11-21T05:08:29.043Z,72.62
2023-11-21T05:11:01.456Z,72.81
2023-11-21T05:13:34.172Z,72.32
2023-11-21T05:16:08.501Z,72.31
2023-11-21T05:18:41.680Z,71.74
2023-11-21T05:21:13.522Z,71.67
2023-11-21T05:23:45.159Z,71.23
2023-11-21T05:26:16.838Z,71.44
2023-11-21T05:28:49.033Z,71.33
2023-11-21T05:31:21.017Z,71.36
2023-11-21T05:33:53.027Z,71.73
2023-11-21T05:36:25.069Z,72.05
2023-11-21T05:38:56.773Z,72.07
2023-11-21T05:41:28.632Z,72.03
2023-11-21T05:44:00.410Z,71.95
2023-11-21T05:46:32.380Z,71.61
2023-11-21T05:49:05.202Z,71.85
2023-11-21T05:51:37.347Z,72.43
2023-11-21T05:54:10.436Z,73.15
2023-11-21T05:56:42.751Z,73.46
2023-11-21T05:59:16.062Z,73.21
2023-11-21T06:01:47.868Z,73.29
2023-11-21T06:04:20.252Z,73.14
2023-11-21T06:06:52.226Z,73.25
2023-11-21T06:09:24.089Z,74.21
2023-11-21T06:11:56.127Z,74.31
2023-11-21T06:14:28.218Z,74.22
2023-11-21T06:17:00.399Z,73.80
2023-11-21T06:19:32.332Z,73.52
2023-11-21T06:22:04.381Z,73.16
2023-11-21T06:24:36.564Z,72.99
2023-11-21T06:27:09.868Z,72.86
2023-11-21T06:29:43.678Z,73.28
2023-11-21T06:32:17.832Z,73.58
2023-11-21T06:34:50.638Z,73.75
2023-11-21T06:37:25.045Z,73.43
2023-11-21T06:39:59.257Z,73.31
2023-11-21T06:42:32.495Z,72.90
2023-11-21T06:45:06.434Z,72.65
2023-11-21T06:47:41.959Z,72.72
2023-11-21T06:50:17.241Z,72.49
2023-11-21T06:52:50.048Z,73.28
2023-11-21T06:55:22.431Z,73.57
2023-11-21T06:57:54.889Z,73.65
2023-11-21T07:00:27.073Z,73.18
2023-11-21T07:02:59.438Z,73.18
2023-11-21T07:05:31.903Z,72.47
2023-11-21T07:08:05.702Z,72.33
2023-11-21T07:10:39.193Z,72.33
2023-11-21T07:13:13.745Z,71.89
2023-11-21T07:15:46.555Z,72.14
2023-11-21T07:18:19.808Z,72.58
2023-11-21T07:20:53.211Z,72.47
2023-11-21T07:23:25.252Z,72.08
2023-11-21T07:25:57.865Z,71.99
2023-11-21T07:28:31.492Z,71.29
2023-11-21T07:31:05.866Z,70.32
2023-11-21T07:33:39.687Z,71.03
2023-11-21T07:36:13.379Z,70.59
2023-11-21T07:38:47.573Z,70.66
2023-11-21T07:41:28.875Z,70.22
2023-11-21T07:44:03.744Z,69.38
2023-11-21T07:46:36.395Z,68.56
2023-11-21T07:49:08.154Z,68.86
2023-11-21T07:51:39.818Z,68.14
2023-11-21T07:54:11.750Z,66.68
2023-11-21T07:56:43.609Z,65.98
2023-11-21T07:59:15.885Z,65.36
2023-11-21T08:01:47.566Z,64.34
2023-11-21T08:04:20.062Z,63.36
2023-11-21T08:06:52.375Z,65.25
2023-11-21T08:09:24.951Z,65.45
2023-11-21T08:11:57.793Z,65.87
2023-11-21T08:14:29.995Z,64.47
2023-11-21T08:17:02.391Z,64.23
2023-11-21T08:19:35.188Z,63.48
2023-11-21T08:22:09.436Z,63.14
2023-11-21T08:24:41.690Z,63.41
2023-11-21T08:27:17.492Z,61.56
2023-11-21T08:29:49.465Z,61.43
2023-11-21T08:32:21.716Z,60.99
2023-11-21T08:34:53.989Z,58.94
2023-11-21T08:37:28.219Z,57.60
2023-11-21T08:40:03.709Z,53.98
2023-11-21T08:42:36.856Z,53.09
2023-11-21T08:45:12.064Z,56.24
2023-11-21T08:47:45.629Z,50.25
2023-11-21T08:50:18.197Z,50.52
2023-11-21T08:52:51.366Z,45.84
2023-11-21T08:55:24.405Z,42.30
2023-11-21T08:57:57.754Z,41.43
2023-11-21T09:00:31.211Z,39.95
2023-11-21T09:03:09.775Z,36.60
2023-11-21T09:05:43.263Z,35.22
2023-11-21T09:08:15.636Z,33.93
2023-11-21T09:10:48.561Z,33.20
2023-11-21T09:13:22.286Z,33.78
2023-11-21T09:15:55.486Z,33.01
2023-11-21T09:18:27.358Z,35.14
2023-11-21T09:21:00.182Z,33.98
2023-11-21T09:23:32.293Z,35.34
2023-11-21T09:26:04.777Z,37.72
2023-11-21T09:28:39.759Z,38.61
2023-11-21T09:31:11.720Z,38.31
2023-11-21T09:33:43.708Z,39.28
2023-11-21T09:36:18.547Z,39.63
2023-11-21T09:38:51.342Z,41.74
2023-11-21T09:41:36.314Z,41.69
2023-11-21T09:44:12.296Z,43.20
2023-11-21T09:46:46.321Z,43.43
2023-11-21T09:49:21.016Z,44.99
2023-11-21T09:51:52.577Z,45.96
2023-11-21T09:54:24.894Z,46.28
2023-11-21T09:56:57.182Z,47.15
2023-11-21T09:59:33.341Z,47.72
2023-11-21T10:02:06.697Z,47.68
2023-11-21T10:04:38.836Z,48.31
2023-11-21T10:07:13.627Z,48.79
2023-11-21T10:09:45.987Z,49.57
2023-11-21T10:12:18.975Z,50.27
2023-11-21T10:14:53.654Z,50.93
2023-11-21T10:17:31.560Z,51.28
2023-11-21T10:20:07.801Z,51.41
2023-11-21T10:22:42.481Z,52.09
2023-11-21T10:25:15.779Z,52.10
2023-11-21T10:27:52.997Z,51.82
2023-11-21T10:30:27.249Z,52.00
2023-11-21T10:33:06.034Z,53.01
2023-11-21T10:35:52.418Z,53.55
2023-11-21T10:38:27.272Z,53.31
2023-11-21T10:40:59.642Z,52.57
2023-11-21T10:43:32.761Z,53.46
2023-11-21T10:46:05.700Z,53.59
2023-11-21T10:48:39.382Z,53.86
2023-11-21T10:51:12.802Z,53.82
2023-11-21T10:53:48.154Z,54.44
2023-11-21T10:56:25.738Z,54.76
2023-11-21T10:58:59.926Z,54.76
2023-11-21T11:01:34.842Z,54.83
2023-11-21T11:04:16.069Z,54.70
2023-11-21T11:06:53.543Z,54.57
2023-11-21T11:09:26.340Z,56.08
2023-11-21T11:12:00.266Z,56.62
2023-11-21T11:14:33.529Z,56.69
2023-11-21T11:17:07.352Z,57.59
2023-11-21T11:19:40.697Z,57.62
2023-11-21T11:22:26.569Z,57.84
2023-11-21T11:25:21.941Z,58.20
2023-11-21T11:28:04.508Z,57.58
2023-11-21T11:30:50.075Z,58.82
2023-11-21T11:33:36.726Z,59.51
2023-11-21T11:36:17.911Z,57.41
2023-11-21T11:38:51.471Z,57.70
2023-11-21T11:41:30.963Z,57.70
2023-11-21T11:44:03.824Z,57.52
2023-11-21T11:46:48.199Z,59.48
2023-11-21T11:49:33.480Z,60.23
2023-11-21T11:52:37.385Z,59.84
2023-11-21T11:55:12.536Z,59.47
2023-11-21T11:57:45.888Z,59.76
2023-11-21T12:00:23.763Z,61.58
2023-11-21T12:02:58.294Z,60.52
2023-11-21T12:05:34.123Z,61.14
2023-11-21T12:08:08.461Z,61.84
2023-11-21T12:10:42.116Z,60.75
2023-11-21T12:13:15.208Z,60.37
2023-11-21T12:15:48.498Z,60.16
2023-11-21T12:18:21.439Z,61.61
2023-11-21T12:20:55.580Z,59.95
2023-11-21T12:23:30.920Z,61.00
2023-11-21T12:26:03.618Z,61.97
2023-11-21T12:28:36.064Z,61.61
2023-11-21T12:31:19.928Z,62.18
2023-11-21T12:33:55.257Z,63.17
2023-11-21T12:36:30.197Z,62.28
2023-11-21T12:39:03.886Z,62.24
2023-11-21T12:41:36.496Z,62.68
2023-11-21T12:44:16.902Z,63.76
2023-11-21T12:46:49.409Z,63.11
2023-11-21T12:49:23.497Z,63.49
2023-11-21T12:51:56.712Z,64.77
2023-11-21T12:54:31.237Z,64.95
2023-11-21T12:57:09.743Z,64.06
2023-11-21T12:59:46.752Z,63.32
2023-11-21T13:02:19.542Z,64.92
2023-11-21T13:04:59.824Z,63.82
2023-11-21T13:07:32.230Z,63.92
2023-11-21T13:10:06.948Z,63.39
2023-11-21T13:12:41.567Z,64.69
2023-11-21T13:15:19.146Z,65.54
2023-11-21T13:17:52.601Z,63.33
2023-11-21T13:20:25.736Z,63.82
2023-11-21T13:23:00.526Z,65.18
2023-11-21T13:25:33.742Z,64.57
2023-11-21T13:28:06.209Z,64.64
2023-11-21T13:30:40.838Z,66.01
2023-11-21T13:33:20.157Z,66.34
2023-11-21T13:35:53.272Z,64.35
2023-11-21T13:38:26.499Z,65.99
2023-11-21T13:40:59.969Z,67.02
2023-11-21T13:43:32.754Z,65.81
2023-11-21T13:46:14.941Z,65.89
2023-11-21T13:48:52.501Z,67.06
2023-11-21T13:51:38.984Z,66.43
2023-11-21T13:54:11.431Z,65.88
2023-11-21T13:56:47.299Z,66.51
2023-11-21T13:59:24.477Z,65.74
2023-11-21T14:01:59.795Z,64.86
2023-11-21T14:04:56.513Z,66.17
2023-11-21T14:07:37.461Z,65.75
2023-11-21T14:10:15.880Z,65.82
2023-11-21T14:12:48.495Z,66.49
2023-11-21T14:15:20.547Z,66.96
2023-11-21T14:17:53.137Z,66.52
2023-11-21T14:20:26.459Z,66.76
2023-11-21T14:22:58.921Z,66.56
2023-11-21T14:25:31.896Z,65.77
2023-11-21T14:28:07.559Z,65.80
2023-11-21T14:30:41.177Z,65.50
2023-11-21T14:33:13.811Z,65.41
2023-11-21T14:35:48.474Z,65.57
2023-11-21T14:38:22.573Z,66.05
2023-11-21T14:40:56.830Z,65.75
2023-11-21T14:43:31.390Z,65.95
2023-11-21T14:46:08.515Z,66.11
2023-11-21T14:48:44.466Z,65.80
2023-11-21T14:51:33.137Z,66.18
2023-11-21T14:54:08.742Z,67.28
2023-11-21T14:56:45.303Z,67.18
2023-11-21T14:59:18.833Z,66.94
2023-11-21T15:01:56.948Z,66.58
2023-11-21T15:04:37.685Z,66.16
2023-11-21T15:07:13.193Z,66.26
2023-11-21T15:09:46.553Z,66.43
2023-11-21T15:12:21.366Z,65.89
2023-11-21T15:14:57.021Z,66.17
2023-11-21T15:17:32.282Z,67.00
2023-11-21T15:20:08.259Z,66.94
2023-11-21T15:22:42.468Z,66.86
2023-11-21T15:25:15.280Z,67.47
2023-11-21T15:27:50.520Z,67.48
2023-11-21T15:30:26.140Z,67.66
2023-11-21T15:32:58.584Z,67.48
2023-11-21T15:35:31.955Z,66.73
2023-11-21T15:38:04.160Z,66.81
2023-11-21T15:40:36.867Z,66.85
2023-11-21T15:43:09.783Z,66.73
2023-11-21T15:45:42.060Z,67.69
2023-11-21T15:48:14.384Z,67.24
2023-11-21T15:50:48.111Z,67.25
2023-11-21T15:53:20.962Z,68.14
2023-11-21T15:55:53.295Z,68.18
2023-11-21T15:58:26.157Z,68.07
2023-11-21T16:00:58.978Z,67.78
2023-11-21T16:03:34.833Z,67.62
2023-11-21T16:06:10.963Z,67.46
2023-11-21T16:08:43.226Z,67.21
2023-11-21T16:11:15.712Z,67.32
2023-11-21T16:13:50.077Z,67.39
2023-11-21T16:16:26.550Z,67.75
2023-11-21T16:18:58.321Z,68.28
2023-11-21T16:21:31.752Z,68.52
2023-11-21T16:24:04.410Z,67.99
2023-11-21T16:26:37.024Z,67.68
2023-11-21T16:29:09.070Z,67.72
2023-11-21T16:31:41.566Z,67.86
2023-11-21T16:34:20.518Z,67.81
2023-11-21T16:36:53.344Z,67.66
2023-11-21T16:39:25.895Z,67.82
2023-11-21T16:41:58.606Z,68.28
2023-11-21T16:44:35.526Z,68.55
2023-11-21T16:47:08.493Z,68.51
2023-11-21T16:49:41.953Z,68.21
2023-11-21T16:52:14.234Z,67.54
2023-11-21T16:54:46.372Z,67.29
2023-11-21T16:57:19.083Z,67.07
2023-11-21T16:59:52.316Z,66.58
2023-11-21T17:02:25.161Z,66.15
2023-11-21T17:04:57.663Z,66.06
2023-11-21T17:07:30.763Z,65.88
2023-11-21T17:10:04.111Z,65.36
2023-11-21T17:12:36.267Z,65.49
2023-11-21T17:15:10.440Z,66.14
2023-11-21T17:17:42.748Z,66.47
2023-11-21T17:20:16.013Z,65.98
2023-11-21T17:22:49.132Z,65.40
2023-11-21T17:25:21.505Z,65.33
2023-11-21T17:27:53.411Z,64.80
2023-11-21T17:30:25.506Z,64.77
2023-11-21T17:32:58.202Z,64.72
2023-11-21T17:35:30.432Z,64.63
2023-11-21T17:38:02.649Z,64.77
2023-11-21T17:40:36.159Z,64.70
2023-11-21T17:43:09.014Z,64.96
2023-11-21T17:45:41.485Z,64.76
2023-11-21T17:48:14.080Z,64.59
2023-11-21T17:50:46.321Z,64.80
2023-11-21T17:53:19.005Z,65.03
2023-11-21T17:55:51.385Z,65.38
2023-11-21T17:58:23.237Z,64.92
2023-11-21T18:00:55.528Z,64.34
2023-11-21T18:03:27.814Z,64.40
2023-11-21T18:06:00.048Z,63.87
2023-11-21T18:08:31.877Z,64.05
2023-11-21T18:11:06.375Z,64.04
2023-11-21T18:13:38.699Z,63.99
2023-11-21T18:16:12.078Z,64.35
2023-11-21T18:18:43.976Z,64.14
2023-11-21T18:21:16.161Z,63.74
2023-11-21T18:23:48.418Z,63.79
2023-11-21T18:26:23.657Z,63.65
2023-11-21T18:28:55.916Z,63.56
2023-11-21T18:31:27.947Z,63.37
2023-11-21T18:34:00.763Z,63.15
2023-11-21T18:36:33.016Z,63.55
2023-11-21T18:39:04.965Z,64.37
2023-11-21T18:41:37.114Z,64.04
2023-11-21T18:44:10.127Z,63.92
2023-11-21T18:46:43.118Z,63.44
2023-11-21T18:49:15.002Z,63.56
2023-11-21T18:51:50.127Z,63.20
2023-11-21T18:54:21.325Z,62.69
2023-11-21T18:56:53.892Z,62.85
2023-11-21T18:59:26.171Z,62.67
2023-11-21T19:01:59.104Z,62.66
2023-11-21T19:04:31.310Z,62.63
2023-11-21T19:07:03.559Z,62.43
2023-11-21T19:09:37.002Z,62.56
2023-11-21T19:12:14.293Z,62.51
2023-11-21T19:14:48.523Z,62.49
2023-11-21T19:17:21.618Z,62.68
2023-11-21T19:19:53.652Z,62.48
2023-11-21T19:22:25.456Z,62.83
2023-11-21T19:24:57.959Z,62.75
2023-11-21T19:27:40.014Z,62.92
2023-11-21T19:30:15.675Z,62.88
2023-11-21T19:33:00.942Z,63.60
2023-11-21T19:35:40.236Z,63.61
2023-11-21T19:38:12.423Z,63.28
2023-11-21T19:40:45.864Z,62.59
2023-11-21T19:43:18.729Z,62.64
2023-11-21T19:46:05.582Z,62.49
2023-11-21T19:48:39.341Z,62.46
2023-11-21T19:51:13.148Z,62.61
2023-11-21T19:53:45.532Z,62.66
2023-11-21T19:56:18.590Z,62.73
2023-11-21T19:58:51.928Z,62.59
2023-11-21T20:01:24.324Z,62.10
2023-11-21T20:03:58.944Z,62.40
2023-11-21T20:06:35.065Z,62.76
2023-11-21T20:09:14.793Z,62.88
2023-11-21T20:11:56.082Z,63.20
2023-11-21T20:14:32.128Z,63.32
2023-11-21T20:17:04.550Z,63.72
2023-11-21T20:19:38.127Z,64.03
2023-11-21T20:22:10.581Z,64.03
2023-11-21T20:24:42.439Z,63.18
2023-11-21T20:27:15.792Z,63.05
2023-11-21T20:29:47.725Z,62.93
2023-11-21T20:32:25.431Z,62.71
2023-11-21T20:34:57.471Z,62.71
2023-11-21T20:37:29.637Z,62.73
2023-11-21T20:40:01.872Z,63.26
2023-11-21T20:42:33.915Z,62.88
2023-11-21T20:45:07.115Z,62.43
2023-11-21T20:47:39.735Z,62.90
2023-11-21T20:50:13.982Z,62.82
2023-11-21T20:52:46.336Z,63.08
2023-11-21T20:55:18.800Z,62.90
2023-11-21T20:57:51.803Z,62.96
2023-11-21T21:00:27.192Z,63.40
2023-11-21T21:02:59.092Z,63.84
2023-11-21T21:05:32.106Z,63.54
2023-11-21T21:08:15.439Z,63.44
2023-11-21T21:10:48.012Z,63.13
2023-11-21T21:13:20.604Z,62.82
2023-11-21T21:15:52.397Z,62.95
2023-11-21T21:18:27.734Z,62.92
2023-11-21T21:21:00.910Z,62.79
2023-11-21T21:23:32.760Z,62.81
2023-11-21T21:26:09.171Z,62.87
2023-11-21T21:28:41.961Z,63.05
2023-11-21T21:31:14.318Z,63.13
2023-11-21T21:33:46.390Z,63.29
2023-11-21T21:36:18.551Z,63.04
2023-11-21T21:38:52.342Z,63.51
2023-11-21T21:41:25.957Z,63.75
2023-11-21T21:43:59.556Z,63.68
2023-11-21T21:46:31.449Z,64.56
2023-11-21T21:49:04.792Z,64.50
2023-11-21T21:51:38.321Z,64.65
2023-11-21T21:54:10.766Z,63.51
2023-11-21T21:56:42.528Z,63.86
2023-11-21T21:59:14.383Z,63.54
2023-11-21T22:01:49.471Z,62.29
2023-11-21T22:04:20.237Z,62.34
2023-11-21T22:06:51.997Z,63.01
2023-11-21T22:09:34.162Z,62.60
2023-11-21T22:12:07.397Z,62.47
2023-11-21T22:14:39.360Z,62.89
2023-11-21T22:17:12.035Z,62.87
2023-11-21T22:19:44.263Z,63.12
2023-11-21T22:22:16.254Z,63.37
2023-11-21T22:24:48.486Z,63.27
2023-11-21T22:27:20.860Z,63.38
2023-11-21T22:29:52.953Z,63.36
2023-11-21T22:32:25.000Z,63.62
2023-11-21T22:34:57.978Z,64.01
2023-11-21T22:37:30.014Z,64.63
2023-11-21T22:40:01.908Z,64.53
2023-11-21T22:42:34.003Z,64.09
2023-11-21T22:45:09.270Z,63.60
2023-11-21T22:47:39.710Z,63.54
2023-11-21T22:50:15.128Z,63.62
2023-11-21T22:52:47.482Z,63.54
2023-11-21T22:55:20.118Z,63.57
2023-11-21T22:57:51.714Z,63.52
2023-11-21T23:00:31.239Z,63.70
2023-11-21T23:03:03.437Z,63.49
2023-11-21T23:05:35.656Z,63.73
2023-11-21T23:08:10.126Z,63.80
2023-11-21T23:10:42.212Z,64.45
2023-11-21T23:13:14.819Z,64.30
2023-11-21T23:15:48.431Z,64.54
2023-11-21T23:18:27.918Z,64.90
2023-11-21T23:21:01.242Z,65.38
2023-11-21T23:23:33.228Z,65.39
2023-11-21T23:26:05.249Z,65.11
2023-11-21T23:28:37.335Z,64.83
2023-11-21T23:31:09.964Z,64.63
2023-11-21T23:33:42.284Z,63.76
2023-11-21T23:36:14.426Z,64.04
2023-11-21T23:38:46.041Z,63.78
2023-11-21T23:41:19.211Z,63.80
2023-11-21T23:43:51.118Z,64.07
2023-11-21T23:46:24.476Z,64.03
2023-11-21T23:48:56.235Z,64.01
2023-11-21T23:51:28.117Z,64.16
2023-11-21T23:54:00.221Z,64.18
2023-11-21T23:56:32.207Z,64.21
2023-11-21T23:59:03.796Z,64.54
